sensor_id;sensor_type;location;lat;lon;timestamp;P1;durP1;ratioP1;P2;durP2;ratioP2
63218;SDS011;49320;52.512;13.448;2023-06-26T00:02:16;7.82;;;7.13;;
63218;SDS011;49320;52.512;13.448;2023-06-26T00:04:43;7.88;;;6.78;;
63218;SDS011;49320;52.512;13.448;2023-06-26T00:07:10;7.88;;;6.93;;
63218;SDS011;49320;52.512;13.448;2023-06-26T00:09:37;7.70;;;6.95;;
63218;SDS011;49320;52.512;13.448;2023-06-26T00:12:04;7.82;;;7.13;;
63218;SDS011;49320;52.512;13.448;2023-06-26T00:14:31;8.00;;;7.20;;
63218;SDS011;49320;52.512;13.448;2023-06-26T00:16:59;8.02;;;7.20;;
63218;SDS011;49320;52.512;13.448;2023-06-26T00:19:26;8.00;;;7.20;;
63218;SDS011;49320;52.512;13.448;2023-06-26T00:21:52;7.50;;;6.57;;
63218;SDS011;49320;52.512;13.448;2023-06-26T00:24:19;7.55;;;6.85;;
63218;SDS011;49320;52.512;13.448;2023-06-26T00:26:46;7.00;;;6.30;;
63218;SDS011;49320;52.512;13.448;2023-06-26T00:29:14;7.60;;;6.78;;
63218;SDS011;49320;52.512;13.448;2023-06-26T00:31:40;7.55;;;6.85;;
63218;SDS011;49320;52.512;13.448;2023-06-26T00:34:08;7.50;;;6.80;;
63218;SDS011;49320;52.512;13.448;2023-06-26T00:36:34;7.47;;;6.80;;
63218;SDS011;49320;52.512;13.448;2023-06-26T00:39:01;7.82;;;7.03;;
63218;SDS011;49320;52.512;13.448;2023-06-26T00:41:29;8.10;;;6.85;;
63218;SDS011;49320;52.512;13.448;2023-06-26T00:43:56;7.30;;;6.60;;
63218;SDS011;49320;52.512;13.448;2023-06-26T00:46:23;8.32;;;6.93;;
63218;SDS011;49320;52.512;13.448;2023-06-26T00:48:51;7.18;;;6.47;;
63218;SDS011;49320;52.512;13.448;2023-06-26T00:51:19;7.43;;;6.72;;
63218;SDS011;49320;52.512;13.448;2023-06-26T00:53:47;7.60;;;6.80;;
63218;SDS011;49320;52.512;13.448;2023-06-26T00:56:14;8.20;;;7.22;;
63218;SDS011;49320;52.512;13.448;2023-06-26T00:58:44;7.68;;;6.97;;
63218;SDS011;49320;52.512;13.448;2023-06-26T01:01:12;7.70;;;6.90;;
63218;SDS011;49320;52.512;13.448;2023-06-26T01:03:43;7.93;;;7.13;;
63218;SDS011;49320;52.512;13.448;2023-06-26T01:06:12;7.88;;;6.80;;
63218;SDS011;49320;52.512;13.448;2023-06-26T01:08:42;7.50;;;6.80;;
63218;SDS011;49320;52.512;13.448;2023-06-26T01:11:10;7.13;;;6.47;;
63218;SDS011;49320;52.512;13.448;2023-06-26T01:13:38;7.95;;;7.25;;
63218;SDS011;49320;52.512;13.448;2023-06-26T01:16:08;9.23;;;8.38;;
63218;SDS011;49320;52.512;13.448;2023-06-26T01:18:37;8.65;;;7.85;;
63218;SDS011;49320;52.512;13.448;2023-06-26T01:21:09;8.23;;;7.43;;
63218;SDS011;49320;52.512;13.448;2023-06-26T01:26:37;8.10;;;7.28;;
63218;SDS011;49320;52.512;13.448;2023-06-26T01:29:07;7.75;;;7.05;;
63218;SDS011;49320;52.512;13.448;2023-06-26T01:31:36;8.15;;;7.35;;
63218;SDS011;49320;52.512;13.448;2023-06-26T01:34:04;7.90;;;7.20;;
63218;SDS011;49320;52.512;13.448;2023-06-26T01:36:32;8.27;;;7.50;;
63218;SDS011;49320;52.512;13.448;2023-06-26T01:38:59;7.90;;;7.10;;
63218;SDS011;49320;52.512;13.448;2023-06-26T01:41:25;9.43;;;6.90;;
63218;SDS011;49320;52.512;13.448;2023-06-26T01:44:05;8.43;;;7.63;;
63218;SDS011;49320;52.512;13.448;2023-06-26T01:46:50;7.45;;;6.75;;
63218;SDS011;49320;52.512;13.448;2023-06-26T01:52:25;8.00;;;7.28;;
63218;SDS011;49320;52.512;13.448;2023-06-26T01:55:21;7.20;;;6.50;;
63218;SDS011;49320;52.512;13.448;2023-06-26T01:58:02;9.13;;;8.23;;
63218;SDS011;49320;52.512;13.448;2023-06-26T02:00:29;9.82;;;8.82;;
63218;SDS011;49320;52.512;13.448;2023-06-26T02:02:59;9.48;;;8.55;;
63218;SDS011;49320;52.512;13.448;2023-06-26T02:05:26;9.50;;;8.60;;
63218;SDS011;49320;52.512;13.448;2023-06-26T02:07:53;9.88;;;8.98;;
63218;SDS011;49320;52.512;13.448;2023-06-26T02:10:20;8.82;;;8.02;;
63218;SDS011;49320;52.512;13.448;2023-06-26T02:12:46;9.05;;;8.23;;
63218;SDS011;49320;52.512;13.448;2023-06-26T02:15:13;8.07;;;7.28;;
63218;SDS011;49320;52.512;13.448;2023-06-26T02:17:40;9.20;;;8.30;;
63218;SDS011;49320;52.512;13.448;2023-06-26T02:20:07;8.52;;;7.63;;
63218;SDS011;49320;52.512;13.448;2023-06-26T02:22:36;8.82;;;7.97;;
63218;SDS011;49320;52.512;13.448;2023-06-26T02:25:03;8.35;;;7.65;;
63218;SDS011;49320;52.512;13.448;2023-06-26T02:27:30;8.32;;;7.55;;
63218;SDS011;49320;52.512;13.448;2023-06-26T02:29:57;8.85;;;8.05;;
63218;SDS011;49320;52.512;13.448;2023-06-26T02:32:24;8.18;;;7.38;;
63218;SDS011;49320;52.512;13.448;2023-06-26T02:34:51;8.38;;;7.57;;
63218;SDS011;49320;52.512;13.448;2023-06-26T02:37:18;9.07;;;8.15;;
63218;SDS011;49320;52.512;13.448;2023-06-26T02:39:45;8.45;;;7.57;;
63218;SDS011;49320;52.512;13.448;2023-06-26T02:42:12;8.32;;;7.53;;
63218;SDS011;49320;52.512;13.448;2023-06-26T02:44:38;8.60;;;7.80;;
63218;SDS011;49320;52.512;13.448;2023-06-26T02:47:05;8.30;;;7.50;;
63218;SDS011;49320;52.512;13.448;2023-06-26T02:49:32;8.80;;;8.00;;
63218;SDS011;49320;52.512;13.448;2023-06-26T02:51:59;8.23;;;7.43;;
63218;SDS011;49320;52.512;13.448;2023-06-26T02:54:26;8.45;;;7.65;;
63218;SDS011;49320;52.512;13.448;2023-06-26T02:56:53;8.10;;;7.30;;
63218;SDS011;49320;52.512;13.448;2023-06-26T02:59:20;8.57;;;7.68;;
63218;SDS011;49320;52.512;13.448;2023-06-26T03:01:47;8.70;;;7.90;;
63218;SDS011;49320;52.512;13.448;2023-06-26T03:04:13;9.77;;;7.72;;
63218;SDS011;49320;52.512;13.448;2023-06-26T03:06:41;8.93;;;8.02;;
63218;SDS011;49320;52.512;13.448;2023-06-26T03:09:08;8.38;;;7.55;;
63218;SDS011;49320;52.512;13.448;2023-06-26T03:11:35;9.18;;;8.27;;
63218;SDS011;49320;52.512;13.448;2023-06-26T03:14:02;8.23;;;7.45;;
63218;SDS011;49320;52.512;13.448;2023-06-26T03:16:28;9.52;;;7.45;;
63218;SDS011;49320;52.512;13.448;2023-06-26T03:18:55;9.30;;;8.40;;
63218;SDS011;49320;52.512;13.448;2023-06-26T03:21:22;8.68;;;7.88;;
63218;SDS011;49320;52.512;13.448;2023-06-26T03:23:49;8.30;;;7.50;;
63218;SDS011;49320;52.512;13.448;2023-06-26T03:26:16;9.65;;;8.75;;
63218;SDS011;49320;52.512;13.448;2023-06-26T03:28:43;9.20;;;8.30;;
63218;SDS011;49320;52.512;13.448;2023-06-26T03:31:09;9.60;;;8.70;;
63218;SDS011;49320;52.512;13.448;2023-06-26T03:33:37;9.23;;;8.43;;
63218;SDS011;49320;52.512;13.448;2023-06-26T03:36:04;9.27;;;8.38;;
63218;SDS011;49320;52.512;13.448;2023-06-26T03:38:32;9.23;;;8.40;;
63218;SDS011;49320;52.512;13.448;2023-06-26T03:40:59;9.85;;;8.70;;
63218;SDS011;49320;52.512;13.448;2023-06-26T03:43:26;9.90;;;8.98;;
63218;SDS011;49320;52.512;13.448;2023-06-26T03:45:52;9.23;;;8.43;;
63218;SDS011;49320;52.512;13.448;2023-06-26T03:48:20;9.38;;;8.57;;
63218;SDS011;49320;52.512;13.448;2023-06-26T03:50:46;9.25;;;8.40;;
63218;SDS011;49320;52.512;13.448;2023-06-26T03:53:13;10.07;;;9.18;;
63218;SDS011;49320;52.512;13.448;2023-06-26T03:55:40;10.13;;;9.18;;
63218;SDS011;49320;52.512;13.448;2023-06-26T03:58:07;9.45;;;8.57;;
63218;SDS011;49320;52.512;13.448;2023-06-26T04:00:34;10.32;;;9.32;;
63218;SDS011;49320;52.512;13.448;2023-06-26T04:03:00;9.70;;;8.77;;
63218;SDS011;49320;52.512;13.448;2023-06-26T04:05:29;9.95;;;9.05;;
63218;SDS011;49320;52.512;13.448;2023-06-26T04:07:56;10.38;;;9.38;;
63218;SDS011;49320;52.512;13.448;2023-06-26T04:10:23;10.27;;;9.38;;
63218;SDS011;49320;52.512;13.448;2023-06-26T04:12:50;10.30;;;9.30;;
63218;SDS011;49320;52.512;13.448;2023-06-26T04:15:17;9.73;;;8.82;;
63218;SDS011;49320;52.512;13.448;2023-06-26T04:17:43;10.65;;;9.65;;
63218;SDS011;49320;52.512;13.448;2023-06-26T04:20:10;10.82;;;9.27;;
63218;SDS011;49320;52.512;13.448;2023-06-26T04:22:37;10.30;;;9.30;;
63218;SDS011;49320;52.512;13.448;2023-06-26T04:25:04;9.73;;;8.82;;
63218;SDS011;49320;52.512;13.448;2023-06-26T04:27:31;10.50;;;9.55;;
63218;SDS011;49320;52.512;13.448;2023-06-26T04:30:01;10.50;;;9.50;;
63218;SDS011;49320;52.512;13.448;2023-06-26T04:32:29;9.73;;;8.82;;
63218;SDS011;49320;52.512;13.448;2023-06-26T04:34:56;10.07;;;9.15;;
63218;SDS011;49320;52.512;13.448;2023-06-26T04:37:23;10.25;;;9.15;;
63218;SDS011;49320;52.512;13.448;2023-06-26T04:39:50;10.57;;;9.50;;
63218;SDS011;49320;52.512;13.448;2023-06-26T04:42:17;10.00;;;9.00;;
63218;SDS011;49320;52.512;13.448;2023-06-26T04:44:45;10.38;;;9.43;;
63218;SDS011;49320;52.512;13.448;2023-06-26T04:47:11;10.27;;;9.38;;
63218;SDS011;49320;52.512;13.448;2023-06-26T04:49:41;10.20;;;9.30;;
63218;SDS011;49320;52.512;13.448;2023-06-26T04:52:12;10.23;;;9.32;;
63218;SDS011;49320;52.512;13.448;2023-06-26T04:54:40;9.43;;;8.57;;
63218;SDS011;49320;52.512;13.448;2023-06-26T04:57:06;10.45;;;9.52;;
63218;SDS011;49320;52.512;13.448;2023-06-26T04:59:35;10.13;;;9.23;;
63218;SDS011;49320;52.512;13.448;2023-06-26T05:02:01;9.73;;;8.82;;
63218;SDS011;49320;52.512;13.448;2023-06-26T05:04:29;10.60;;;9.60;;
63218;SDS011;49320;52.512;13.448;2023-06-26T05:06:56;11.07;;;9.98;;
63218;SDS011;49320;52.512;13.448;2023-06-26T05:09:23;10.20;;;9.20;;
63218;SDS011;49320;52.512;13.448;2023-06-26T05:11:50;9.50;;;8.70;;
63218;SDS011;49320;52.512;13.448;2023-06-26T05:14:17;9.65;;;8.85;;
63218;SDS011;49320;52.512;13.448;2023-06-26T05:16:43;9.63;;;8.80;;
63218;SDS011;49320;52.512;13.448;2023-06-26T05:19:10;9.85;;;9.02;;
63218;SDS011;49320;52.512;13.448;2023-06-26T05:21:37;10.30;;;9.40;;
63218;SDS011;49320;52.512;13.448;2023-06-26T05:24:05;11.25;;;8.40;;
63218;SDS011;49320;52.512;13.448;2023-06-26T05:26:34;9.05;;;8.32;;
63218;SDS011;49320;52.512;13.448;2023-06-26T05:29:01;10.52;;;9.35;;
63218;SDS011;49320;52.512;13.448;2023-06-26T05:31:29;9.75;;;8.75;;
63218;SDS011;49320;52.512;13.448;2023-06-26T05:34:00;10.45;;;9.55;;
63218;SDS011;49320;52.512;13.448;2023-06-26T05:36:30;9.38;;;8.55;;
63218;SDS011;49320;52.512;13.448;2023-06-26T05:38:59;8.88;;;8.07;;
63218;SDS011;49320;52.512;13.448;2023-06-26T05:41:27;9.05;;;8.18;;
63218;SDS011;49320;52.512;13.448;2023-06-26T05:43:55;8.93;;;8.13;;
63218;SDS011;49320;52.512;13.448;2023-06-26T05:46:21;9.13;;;8.32;;
63218;SDS011;49320;52.512;13.448;2023-06-26T05:48:48;8.32;;;7.55;;
63218;SDS011;49320;52.512;13.448;2023-06-26T05:51:15;9.45;;;8.18;;
63218;SDS011;49320;52.512;13.448;2023-06-26T05:53:42;9.52;;;8.63;;
63218;SDS011;49320;52.512;13.448;2023-06-26T05:56:10;8.63;;;7.82;;
63218;SDS011;49320;52.512;13.448;2023-06-26T05:58:37;8.90;;;8.05;;
63218;SDS011;49320;52.512;13.448;2023-06-26T06:01:04;9.07;;;8.27;;
63218;SDS011;49320;52.512;13.448;2023-06-26T06:03:31;9.45;;;8.55;;
63218;SDS011;49320;52.512;13.448;2023-06-26T06:05:58;9.50;;;8.70;;
63218;SDS011;49320;52.512;13.448;2023-06-26T06:08:25;8.23;;;7.53;;
63218;SDS011;49320;52.512;13.448;2023-06-26T06:10:52;9.80;;;8.85;;
63218;SDS011;49320;52.512;13.448;2023-06-26T06:13:19;9.00;;;8.20;;
63218;SDS011;49320;52.512;13.448;2023-06-26T06:15:46;9.90;;;7.75;;
63218;SDS011;49320;52.512;13.448;2023-06-26T06:18:13;8.80;;;8.00;;
63218;SDS011;49320;52.512;13.448;2023-06-26T06:20:39;8.95;;;8.05;;
63218;SDS011;49320;52.512;13.448;2023-06-26T06:23:07;8.48;;;7.68;;
63218;SDS011;49320;52.512;13.448;2023-06-26T06:25:34;8.75;;;8.05;;
63218;SDS011;49320;52.512;13.448;2023-06-26T06:28:01;9.57;;;8.00;;
63218;SDS011;49320;52.512;13.448;2023-06-26T06:30:27;8.70;;;7.65;;
63218;SDS011;49320;52.512;13.448;2023-06-26T06:33:01;8.85;;;7.95;;
63218;SDS011;49320;52.512;13.448;2023-06-26T06:35:28;8.18;;;7.43;;
63218;SDS011;49320;52.512;13.448;2023-06-26T06:37:56;8.00;;;7.28;;
63218;SDS011;49320;52.512;13.448;2023-06-26T06:40:22;8.68;;;7.78;;
63218;SDS011;49320;52.512;13.448;2023-06-26T06:42:51;8.10;;;7.15;;
63218;SDS011;49320;52.512;13.448;2023-06-26T06:45:17;8.48;;;7.68;;
63218;SDS011;49320;52.512;13.448;2023-06-26T06:47:44;8.90;;;7.85;;
63218;SDS011;49320;52.512;13.448;2023-06-26T06:50:11;7.80;;;6.90;;
63218;SDS011;49320;52.512;13.448;2023-06-26T06:52:38;7.47;;;6.78;;
63218;SDS011;49320;52.512;13.448;2023-06-26T06:55:07;7.03;;;6.43;;
63218;SDS011;49320;52.512;13.448;2023-06-26T06:57:38;6.53;;;5.93;;
63218;SDS011;49320;52.512;13.448;2023-06-26T07:00:09;6.85;;;6.15;;
63218;SDS011;49320;52.512;13.448;2023-06-26T07:02:38;6.73;;;5.47;;
63218;SDS011;49320;52.512;13.448;2023-06-26T07:05:08;6.28;;;5.68;;
63218;SDS011;49320;52.512;13.448;2023-06-26T07:07:35;5.97;;;5.38;;
63218;SDS011;49320;52.512;13.448;2023-06-26T07:10:05;6.22;;;5.22;;
63218;SDS011;49320;52.512;13.448;2023-06-26T07:12:35;5.28;;;4.75;;
63218;SDS011;49320;52.512;13.448;2023-06-26T07:15:03;6.90;;;5.57;;
63218;SDS011;49320;52.512;13.448;2023-06-26T07:17:32;5.88;;;5.38;;
63218;SDS011;49320;52.512;13.448;2023-06-26T07:20:01;6.00;;;5.40;;
63218;SDS011;49320;52.512;13.448;2023-06-26T07:22:33;6.18;;;5.55;;
63218;SDS011;49320;52.512;13.448;2023-06-26T07:25:01;6.75;;;6.10;;
63218;SDS011;49320;52.512;13.448;2023-06-26T07:27:28;7.25;;;6.20;;
63218;SDS011;49320;52.512;13.448;2023-06-26T07:29:55;7.05;;;6.35;;
63218;SDS011;49320;52.512;13.448;2023-06-26T07:32:22;6.32;;;5.72;;
63218;SDS011;49320;52.512;13.448;2023-06-26T07:34:49;8.27;;;6.22;;
63218;SDS011;49320;52.512;13.448;2023-06-26T07:37:15;6.82;;;6.22;;
63218;SDS011;49320;52.512;13.448;2023-06-26T07:39:42;6.30;;;5.70;;
63218;SDS011;49320;52.512;13.448;2023-06-26T07:42:09;5.82;;;5.25;;
63218;SDS011;49320;52.512;13.448;2023-06-26T07:44:36;6.80;;;6.13;;
63218;SDS011;49320;52.512;13.448;2023-06-26T07:47:03;5.15;;;4.65;;
63218;SDS011;49320;52.512;13.448;2023-06-26T07:49:30;5.50;;;5.00;;
63218;SDS011;49320;52.512;13.448;2023-06-26T07:51:58;5.75;;;5.18;;
63218;SDS011;49320;52.512;13.448;2023-06-26T07:54:24;6.53;;;4.88;;
63218;SDS011;49320;52.512;13.448;2023-06-26T07:57:03;5.28;;;4.50;;
63218;SDS011;49320;52.512;13.448;2023-06-26T07:59:35;4.88;;;4.47;;
63218;SDS011;49320;52.512;13.448;2023-06-26T08:02:01;4.93;;;4.47;;
63218;SDS011;49320;52.512;13.448;2023-06-26T08:04:29;5.55;;;5.05;;
63218;SDS011;49320;52.512;13.448;2023-06-26T08:06:59;5.30;;;4.80;;
63218;SDS011;49320;52.512;13.448;2023-06-26T08:09:27;5.90;;;4.60;;
63218;SDS011;49320;52.512;13.448;2023-06-26T08:11:56;5.20;;;4.65;;
63218;SDS011;49320;52.512;13.448;2023-06-26T08:14:24;5.40;;;4.65;;
63218;SDS011;49320;52.512;13.448;2023-06-26T08:16:51;4.80;;;4.40;;
63218;SDS011;49320;52.512;13.448;2023-06-26T08:19:18;4.30;;;3.90;;
63218;SDS011;49320;52.512;13.448;2023-06-26T08:21:45;4.68;;;4.25;;
63218;SDS011;49320;52.512;13.448;2023-06-26T08:24:13;5.55;;;4.53;;
63218;SDS011;49320;52.512;13.448;2023-06-26T08:26:42;4.97;;;4.57;;
63218;SDS011;49320;52.512;13.448;2023-06-26T08:29:11;5.47;;;4.60;;
63218;SDS011;49320;52.512;13.448;2023-06-26T08:31:41;5.38;;;4.88;;
63218;SDS011;49320;52.512;13.448;2023-06-26T08:34:09;4.95;;;4.55;;
63218;SDS011;49320;52.512;13.448;2023-06-26T08:36:35;4.75;;;4.35;;
63218;SDS011;49320;52.512;13.448;2023-06-26T08:39:02;4.35;;;3.95;;
63218;SDS011;49320;52.512;13.448;2023-06-26T08:41:31;4.68;;;3.80;;
63218;SDS011;49320;52.512;13.448;2023-06-26T08:43:59;3.80;;;3.50;;
63218;SDS011;49320;52.512;13.448;2023-06-26T08:46:26;4.60;;;3.75;;
63218;SDS011;49320;52.512;13.448;2023-06-26T08:48:55;3.67;;;3.38;;
63218;SDS011;49320;52.512;13.448;2023-06-26T08:51:28;3.58;;;3.28;;
63218;SDS011;49320;52.512;13.448;2023-06-26T08:53:56;4.30;;;3.90;;
63218;SDS011;49320;52.512;13.448;2023-06-26T08:56:35;3.72;;;3.42;;
63218;SDS011;49320;52.512;13.448;2023-06-26T08:59:06;3.60;;;3.30;;
63218;SDS011;49320;52.512;13.448;2023-06-26T09:01:36;3.97;;;3.58;;
63218;SDS011;49320;52.512;13.448;2023-06-26T09:04:04;3.85;;;3.47;;
63218;SDS011;49320;52.512;13.448;2023-06-26T09:06:31;4.15;;;3.75;;
63218;SDS011;49320;52.512;13.448;2023-06-26T09:08:58;3.75;;;3.17;;
63218;SDS011;49320;52.512;13.448;2023-06-26T09:11:25;3.70;;;3.40;;
63218;SDS011;49320;52.512;13.448;2023-06-26T09:13:52;5.50;;;4.22;;
63218;SDS011;49320;52.512;13.448;2023-06-26T09:16:27;4.20;;;3.80;;
63218;SDS011;49320;52.512;13.448;2023-06-26T09:18:55;4.93;;;4.03;;
63218;SDS011;49320;52.512;13.448;2023-06-26T09:21:22;3.60;;;3.30;;
63218;SDS011;49320;52.512;13.448;2023-06-26T09:23:50;3.80;;;3.50;;
63218;SDS011;49320;52.512;13.448;2023-06-26T09:26:21;4.35;;;3.85;;
63218;SDS011;49320;52.512;13.448;2023-06-26T09:28:48;4.93;;;3.67;;
63218;SDS011;49320;52.512;13.448;2023-06-26T09:31:17;3.92;;;3.58;;
63218;SDS011;49320;52.512;13.448;2023-06-26T09:34:05;3.88;;;3.47;;
63218;SDS011;49320;52.512;13.448;2023-06-26T09:36:33;4.63;;;3.55;;
63218;SDS011;49320;52.512;13.448;2023-06-26T09:39:06;3.22;;;2.92;;
63218;SDS011;49320;52.512;13.448;2023-06-26T09:41:38;3.90;;;3.60;;
63218;SDS011;49320;52.512;13.448;2023-06-26T09:44:07;3.47;;;3.17;;
63218;SDS011;49320;52.512;13.448;2023-06-26T09:46:40;3.90;;;3.60;;
63218;SDS011;49320;52.512;13.448;2023-06-26T09:49:07;3.90;;;3.60;;
63218;SDS011;49320;52.512;13.448;2023-06-26T09:51:40;3.90;;;3.60;;
63218;SDS011;49320;52.512;13.448;2023-06-26T09:54:08;4.55;;;3.83;;
63218;SDS011;49320;52.512;13.448;2023-06-26T09:56:36;3.65;;;3.35;;
63218;SDS011;49320;52.512;13.448;2023-06-26T09:59:03;4.35;;;3.95;;
63218;SDS011;49320;52.512;13.448;2023-06-26T10:01:33;4.30;;;3.90;;
63218;SDS011;49320;52.512;13.448;2023-06-26T10:04:03;4.93;;;4.43;;
63218;SDS011;49320;52.512;13.448;2023-06-26T10:09:04;4.20;;;3.80;;
63218;SDS011;49320;52.512;13.448;2023-06-26T10:11:41;4.30;;;3.90;;
63218;SDS011;49320;52.512;13.448;2023-06-26T10:14:34;3.78;;;3.47;;
63218;SDS011;49320;52.512;13.448;2023-06-26T10:17:09;4.30;;;3.90;;
63218;SDS011;49320;52.512;13.448;2023-06-26T10:19:41;4.18;;;3.58;;
63218;SDS011;49320;52.512;13.448;2023-06-26T10:22:17;4.00;;;3.38;;
63218;SDS011;49320;52.512;13.448;2023-06-26T10:24:47;4.25;;;3.85;;
63218;SDS011;49320;52.512;13.448;2023-06-26T10:27:24;3.97;;;3.67;;
63218;SDS011;49320;52.512;13.448;2023-06-26T10:29:56;5.03;;;3.85;;
63218;SDS011;49320;52.512;13.448;2023-06-26T10:32:29;4.10;;;3.70;;
63218;SDS011;49320;52.512;13.448;2023-06-26T10:34:57;3.88;;;3.58;;
63218;SDS011;49320;52.512;13.448;2023-06-26T10:37:43;3.47;;;3.13;;
63218;SDS011;49320;52.512;13.448;2023-06-26T10:40:12;4.22;;;3.83;;
63218;SDS011;49320;52.512;13.448;2023-06-26T10:42:40;4.00;;;3.65;;
63218;SDS011;49320;52.512;13.448;2023-06-26T10:45:14;3.60;;;3.30;;
63218;SDS011;49320;52.512;13.448;2023-06-26T10:47:47;3.60;;;3.30;;
63218;SDS011;49320;52.512;13.448;2023-06-26T10:55:49;3.60;;;3.30;;
63218;SDS011;49320;52.512;13.448;2023-06-26T10:58:33;4.95;;;3.40;;
63218;SDS011;49320;52.512;13.448;2023-06-26T11:03:39;3.90;;;3.47;;
63218;SDS011;49320;52.512;13.448;2023-06-26T11:06:11;3.80;;;3.40;;
63218;SDS011;49320;52.512;13.448;2023-06-26T11:08:50;3.47;;;3.17;;
63218;SDS011;49320;52.512;13.448;2023-06-26T11:11:21;3.63;;;3.17;;
63218;SDS011;49320;52.512;13.448;2023-06-26T11:14:18;3.40;;;3.10;;
63218;SDS011;49320;52.512;13.448;2023-06-26T11:16:46;3.40;;;3.10;;
63218;SDS011;49320;52.512;13.448;2023-06-26T11:19:16;4.18;;;3.72;;
63218;SDS011;49320;52.512;13.448;2023-06-26T11:21:44;3.45;;;3.15;;
63218;SDS011;49320;52.512;13.448;2023-06-26T11:24:12;4.10;;;3.70;;
63218;SDS011;49320;52.512;13.448;2023-06-26T11:26:40;3.90;;;3.60;;
63218;SDS011;49320;52.512;13.448;2023-06-26T11:29:09;4.15;;;3.63;;
63218;SDS011;49320;52.512;13.448;2023-06-26T11:31:37;3.90;;;3.53;;
63218;SDS011;49320;52.512;13.448;2023-06-26T11:34:08;3.80;;;3.35;;
63218;SDS011;49320;52.512;13.448;2023-06-26T11:36:38;3.63;;;3.33;;
63218;SDS011;49320;52.512;13.448;2023-06-26T11:39:09;4.00;;;3.60;;
63218;SDS011;49320;52.512;13.448;2023-06-26T11:41:36;3.95;;;3.60;;
63218;SDS011;49320;52.512;13.448;2023-06-26T11:44:06;3.75;;;3.45;;
63218;SDS011;49320;52.512;13.448;2023-06-26T11:46:40;3.85;;;3.55;;
63218;SDS011;49320;52.512;13.448;2023-06-26T11:49:07;3.58;;;3.22;;
63218;SDS011;49320;52.512;13.448;2023-06-26T11:51:35;4.32;;;3.92;;
63218;SDS011;49320;52.512;13.448;2023-06-26T11:54:02;3.83;;;3.50;;
63218;SDS011;49320;52.512;13.448;2023-06-26T11:56:30;4.28;;;3.88;;
63218;SDS011;49320;52.512;13.448;2023-06-26T12:01:36;4.07;;;3.67;;
63218;SDS011;49320;52.512;13.448;2023-06-26T12:04:07;4.10;;;3.70;;
63218;SDS011;49320;52.512;13.448;2023-06-26T12:06:37;4.10;;;3.80;;
63218;SDS011;49320;52.512;13.448;2023-06-26T12:09:07;4.45;;;4.05;;
63218;SDS011;49320;52.512;13.448;2023-06-26T12:11:38;4.28;;;3.88;;
63218;SDS011;49320;52.512;13.448;2023-06-26T12:14:08;4.43;;;3.70;;
63218;SDS011;49320;52.512;13.448;2023-06-26T12:16:36;3.92;;;3.60;;
63218;SDS011;49320;52.512;13.448;2023-06-26T12:19:07;4.93;;;4.03;;
63218;SDS011;49320;52.512;13.448;2023-06-26T12:24:06;3.85;;;3.42;;
63218;SDS011;49320;52.512;13.448;2023-06-26T12:26:35;4.45;;;4.05;;
63218;SDS011;49320;52.512;13.448;2023-06-26T12:29:06;6.28;;;3.80;;
63218;SDS011;49320;52.512;13.448;2023-06-26T12:31:45;4.40;;;4.00;;
63218;SDS011;49320;52.512;13.448;2023-06-26T12:34:17;4.13;;;3.72;;
63218;SDS011;49320;52.512;13.448;2023-06-26T12:36:48;5.85;;;5.03;;
63218;SDS011;49320;52.512;13.448;2023-06-26T12:39:19;5.47;;;4.97;;
63218;SDS011;49320;52.512;13.448;2023-06-26T12:41:54;4.30;;;3.90;;
63218;SDS011;49320;52.512;13.448;2023-06-26T12:44:31;4.85;;;4.45;;
63218;SDS011;49320;52.512;13.448;2023-06-26T12:47:00;4.82;;;4.22;;
63218;SDS011;49320;52.512;13.448;2023-06-26T12:49:34;4.90;;;4.50;;
63218;SDS011;49320;52.512;13.448;2023-06-26T12:52:04;4.03;;;3.50;;
63218;SDS011;49320;52.512;13.448;2023-06-26T12:54:38;3.95;;;3.65;;
63218;SDS011;49320;52.512;13.448;2023-06-26T12:57:08;5.10;;;4.60;;
63218;SDS011;49320;52.512;13.448;2023-06-26T12:59:36;4.32;;;3.92;;
63218;SDS011;49320;52.512;13.448;2023-06-26T13:02:04;4.15;;;3.80;;
63218;SDS011;49320;52.512;13.448;2023-06-26T13:04:32;4.00;;;3.70;;
63218;SDS011;49320;52.512;13.448;2023-06-26T13:06:59;4.50;;;4.10;;
63218;SDS011;49320;52.512;13.448;2023-06-26T13:09:26;4.70;;;4.30;;
63218;SDS011;49320;52.512;13.448;2023-06-26T13:11:54;4.78;;;4.38;;
63218;SDS011;49320;52.512;13.448;2023-06-26T13:14:21;5.03;;;4.60;;
63218;SDS011;49320;52.512;13.448;2023-06-26T13:16:47;4.50;;;4.10;;
63218;SDS011;49320;52.512;13.448;2023-06-26T13:19:15;4.43;;;4.03;;
63218;SDS011;49320;52.512;13.448;2023-06-26T13:21:42;5.57;;;4.47;;
63218;SDS011;49320;52.512;13.448;2023-06-26T13:24:09;4.85;;;4.45;;
63218;SDS011;49320;52.512;13.448;2023-06-26T13:26:36;4.78;;;4.38;;
63218;SDS011;49320;52.512;13.448;2023-06-26T13:29:03;5.05;;;4.57;;
63218;SDS011;49320;52.512;13.448;2023-06-26T13:31:31;7.13;;;6.47;;
63218;SDS011;49320;52.512;13.448;2023-06-26T13:33:59;7.85;;;5.63;;
63218;SDS011;49320;52.512;13.448;2023-06-26T13:36:29;5.13;;;4.65;;
63218;SDS011;49320;52.512;13.448;2023-06-26T13:38:56;4.53;;;4.13;;
63218;SDS011;49320;52.512;13.448;2023-06-26T13:41:23;5.00;;;4.57;;
63218;SDS011;49320;52.512;13.448;2023-06-26T13:43:51;4.90;;;4.30;;
63218;SDS011;49320;52.512;13.448;2023-06-26T13:48:51;4.13;;;3.72;;
63218;SDS011;49320;52.512;13.448;2023-06-26T13:51:17;4.55;;;4.15;;
63218;SDS011;49320;52.512;13.448;2023-06-26T13:53:44;5.68;;;4.07;;
63218;SDS011;49320;52.512;13.448;2023-06-26T13:56:11;4.30;;;3.90;;
63218;SDS011;49320;52.512;13.448;2023-06-26T13:58:38;4.53;;;4.13;;
63218;SDS011;49320;52.512;13.448;2023-06-26T14:01:05;4.72;;;4.32;;
63218;SDS011;49320;52.512;13.448;2023-06-26T14:03:32;4.53;;;4.13;;
63218;SDS011;49320;52.512;13.448;2023-06-26T14:05:59;4.78;;;4.38;;
63218;SDS011;49320;52.512;13.448;2023-06-26T14:08:26;5.43;;;4.93;;
63218;SDS011;49320;52.512;13.448;2023-06-26T14:10:54;5.43;;;4.93;;
63218;SDS011;49320;52.512;13.448;2023-06-26T14:13:20;5.35;;;4.85;;
63218;SDS011;49320;52.512;13.448;2023-06-26T14:15:49;5.20;;;4.70;;
63218;SDS011;49320;52.512;13.448;2023-06-26T14:18:19;5.40;;;4.38;;
63218;SDS011;49320;52.512;13.448;2023-06-26T14:20:52;5.33;;;4.83;;
63218;SDS011;49320;52.512;13.448;2023-06-26T14:23:19;5.72;;;5.13;;
63218;SDS011;49320;52.512;13.448;2023-06-26T14:25:46;19.17;;;6.47;;
63218;SDS011;49320;52.512;13.448;2023-06-26T14:28:15;15.88;;;5.90;;
63218;SDS011;49320;52.512;13.448;2023-06-26T14:30:42;8.30;;;4.78;;
63218;SDS011;49320;52.512;13.448;2023-06-26T14:33:09;7.07;;;4.03;;
63218;SDS011;49320;52.512;13.448;2023-06-26T14:35:36;5.93;;;3.30;;
63218;SDS011;49320;52.512;13.448;2023-06-26T14:38:03;5.10;;;3.63;;
63218;SDS011;49320;52.512;13.448;2023-06-26T14:40:30;6.03;;;3.80;;
63218;SDS011;49320;52.512;13.448;2023-06-26T14:42:57;4.90;;;3.67;;
63218;SDS011;49320;52.512;13.448;2023-06-26T14:45:25;4.18;;;3.13;;
63218;SDS011;49320;52.512;13.448;2023-06-26T14:47:52;4.03;;;3.13;;
63218;SDS011;49320;52.512;13.448;2023-06-26T14:50:19;4.45;;;3.40;;
63218;SDS011;49320;52.512;13.448;2023-06-26T14:52:46;3.17;;;2.88;;
63218;SDS011;49320;52.512;13.448;2023-06-26T14:55:13;4.07;;;3.15;;
63218;SDS011;49320;52.512;13.448;2023-06-26T14:57:40;3.75;;;2.92;;
63218;SDS011;49320;52.512;13.448;2023-06-26T15:00:07;6.72;;;3.70;;
63218;SDS011;49320;52.512;13.448;2023-06-26T15:02:34;4.63;;;3.80;;
63218;SDS011;49320;52.512;13.448;2023-06-26T15:05:02;6.40;;;3.97;;
63218;SDS011;49320;52.512;13.448;2023-06-26T15:07:29;6.05;;;5.07;;